This is the latest recevied weather packets stored in our database for station/object KY4JDC. If no packets are shown the sender has not sent any weather packets the latest 1 day(s).
| Time | Temp. | Humidity | Pressure | Rain* | Wind** | Luminosity | Snow |
|---|---|---|---|---|---|---|---|
| 1777985892 | 18.33° C | 66% | 1011.1 hPa | 0 mm | 0 m/s | 30 W/m² | - |
| 1777985589 | 18.33° C | 66% | 1010.7 hPa | 0 mm | 1.34 m/s, 118° | 39 W/m² | - |
| 1777985285 | 17.78° C | 66% | 1010.6 hPa | 0 mm | 0.89 m/s, 210° | 44 W/m² | - |
| 1777984982 | 17.78° C | 66% | 1010.5 hPa | 0 mm | 0 m/s | 34 W/m² | - |
| 1777984678 | 17.78° C | 65% | 1010.5 hPa | 0 mm | 0 m/s | 25 W/m² | - |
| 1777984375 | 17.78° C | 65% | 1010.5 hPa | 0 mm | 0.89 m/s, 144° | 24 W/m² | - |
| 1777984071 | 17.78° C | 66% | 1010.2 hPa | 0 mm | 0.45 m/s, 153° | 25 W/m² | - |
| 1777983769 | 17.78° C | 65% | 1010.3 hPa | 0 mm | 0.45 m/s, 136° | 25 W/m² | - |
| 1777983465 | 17.78° C | 65% | 1010.1 hPa | 0 mm | 0.89 m/s, 150° | 28 W/m² | - |
| 1777983162 | 17.78° C | 65% | 1010.2 hPa | 0 mm | 0.89 m/s, 166° | 26 W/m² | - |
| 1777982858 | 17.78° C | 65% | 1010.1 hPa | 0 mm | 0.89 m/s, 179° | 25 W/m² | - |
| 1777982554 | 17.78° C | 65% | 1009.9 hPa | 0 mm | 0.45 m/s, 131° | 21 W/m² | - |
| 1777982253 | 17.78° C | 65% | 1009.7 hPa | 0 mm | 0.45 m/s, 154° | 18 W/m² | - |
| 1777981951 | 17.78° C | 65% | 1009.7 hPa | 0 mm | 0.45 m/s, 193° | 18 W/m² | - |
| 1777981648 | 17.78° C | 65% | 1010.2 hPa | 0 mm | 0.89 m/s, 148° | 18 W/m² | - |
| 1777981344 | 17.78° C | 64% | 1010.1 hPa | 0 mm | 0 m/s | 17 W/m² | - |
| 1777981041 | 17.78° C | 64% | 1009.9 hPa | 0 mm | 0.89 m/s, 137° | 13 W/m² | - |
| 1777980737 | 17.78° C | 64% | 1009.8 hPa | 0 mm | 0.89 m/s, 159° | 13 W/m² | - |
| 1777980434 | 17.78° C | 64% | 1009.9 hPa | 0 mm | 0.45 m/s, 127° | 9 W/m² | - |
| 1777980132 | 17.78° C | 64% | 1009.8 hPa | 0 mm | 1.79 m/s, 146° | 7 W/m² | - |
| 1777979831 | 17.78° C | 64% | 1009.8 hPa | 0 mm | 1.79 m/s, 138° | 6 W/m² | - |
| 1777979527 | 17.78° C | 64% | 1009.7 hPa | 0 mm | 0.89 m/s, 139° | 4 W/m² | - |
| 1777979223 | 17.78° C | 64% | 1009.6 hPa | 0 mm | 1.34 m/s, 135° | 3 W/m² | - |
| 1777978921 | 17.78° C | 63% | 1009.6 hPa | 0 mm | 0.89 m/s, 160° | 2 W/m² | - |
| 1777978618 | 17.78° C | 63% | 1009.6 hPa | 0 mm | 0.89 m/s, 105° | 1 W/m² | - |
* Rain latest hour (hover to see other rain measurements)
** Current wind speed in m/s (hover to see current wind gust speed)